createdAt,value
2019-05-16T00:01:49.569Z,6.70
2019-05-16T00:04:20.125Z,6.70
2019-05-16T00:06:50.325Z,6.60
2019-05-16T00:09:20.632Z,6.60
2019-05-16T00:11:51.073Z,6.60
2019-05-16T00:14:21.557Z,6.50
2019-05-16T00:16:51.753Z,6.50
2019-05-16T00:19:22.032Z,6.50
2019-05-16T00:21:52.288Z,6.50
2019-05-16T00:24:22.421Z,6.50
2019-05-16T00:26:52.565Z,6.40
2019-05-16T00:29:23.223Z,6.40
2019-05-16T00:31:53.588Z,6.40
2019-05-16T00:34:35.714Z,6.40
2019-05-16T00:37:05.921Z,6.40
2019-05-16T00:39:36.144Z,6.40
2019-05-16T00:42:08.597Z,6.30
2019-05-16T00:44:38.759Z,6.30
2019-05-16T00:47:09.197Z,6.20
2019-05-16T00:49:39.576Z,6.20
2019-05-16T00:52:09.865Z,6.20
2019-05-16T00:54:40.150Z,6.10
2019-05-16T00:57:11.085Z,6.10
2019-05-16T00:59:42.013Z,6.10
2019-05-16T01:02:12.224Z,6.00
2019-05-16T01:04:42.501Z,6.10
2019-05-16T01:07:12.848Z,6.10
2019-05-16T01:09:43.121Z,6.10
2019-05-16T01:12:13.469Z,6.00
2019-05-16T01:14:43.674Z,6.10
2019-05-16T01:17:13.964Z,6.00
2019-05-16T01:19:44.346Z,6.00
2019-05-16T01:22:14.631Z,6.00
2019-05-16T01:24:44.829Z,6.00
2019-05-16T01:27:15.046Z,6.00
2019-05-16T01:29:47.602Z,6.00
2019-05-16T01:32:19.012Z,6.00
2019-05-16T01:34:49.379Z,5.90
2019-05-16T01:37:19.738Z,5.90
2019-05-16T01:39:50.009Z,5.90
2019-05-16T01:42:20.225Z,5.90
2019-05-16T01:44:50.509Z,5.90
2019-05-16T01:47:20.729Z,5.90
2019-05-16T01:49:50.997Z,5.90
2019-05-16T01:52:21.422Z,6.00
2019-05-16T01:54:51.624Z,6.00
2019-05-16T01:57:21.837Z,6.10
2019-05-16T01:59:52.139Z,5.90
2019-05-16T02:02:22.562Z,5.90
2019-05-16T02:04:52.849Z,5.90
2019-05-16T02:07:23.130Z,5.90
2019-05-16T02:09:53.350Z,5.90
2019-05-16T02:12:23.630Z,5.90
2019-05-16T02:14:53.854Z,5.80
2019-05-16T02:17:24.153Z,5.80
2019-05-16T02:19:54.373Z,5.80
2019-05-16T02:22:24.717Z,5.80
2019-05-16T02:24:54.997Z,5.80
2019-05-16T02:27:25.281Z,5.80
2019-05-16T02:29:55.420Z,5.70
2019-05-16T02:32:25.803Z,5.70
2019-05-16T02:34:56.015Z,5.60
2019-05-16T02:37:32.411Z,5.60
2019-05-16T02:40:01.371Z,5.60
2019-05-16T02:42:30.945Z,5.60
2019-05-16T02:45:02.643Z,5.60
2019-05-16T02:47:34.950Z,5.60
2019-05-16T02:50:06.189Z,5.60
2019-05-16T02:52:36.421Z,5.60
2019-05-16T02:55:07.317Z,5.60
2019-05-16T02:57:41.116Z,5.60
2019-05-16T03:00:12.105Z,5.60
2019-05-16T03:02:42.902Z,5.60
2019-05-16T03:05:13.330Z,5.60
2019-05-16T03:07:47.205Z,5.60
2019-05-16T03:10:17.072Z,5.60
2019-05-16T03:12:50.870Z,5.70
2019-05-16T03:15:21.724Z,5.70
2019-05-16T03:17:58.750Z,5.70
2019-05-16T03:20:31.470Z,5.70
2019-05-16T03:23:02.282Z,5.70
2019-05-16T03:25:32.848Z,5.80
2019-05-16T03:28:03.234Z,5.80
2019-05-16T03:30:35.516Z,5.90
2019-05-16T03:33:05.889Z,6.00
2019-05-16T03:35:36.515Z,6.10
2019-05-16T03:38:06.888Z,6.10
2019-05-16T03:40:37.224Z,6.20
2019-05-16T03:43:07.438Z,6.30
2019-05-16T03:45:41.383Z,6.30
2019-05-16T03:48:11.992Z,6.40
2019-05-16T03:50:41.704Z,6.40
2019-05-16T03:53:12.117Z,6.50
2019-05-16T03:55:42.432Z,6.50
2019-05-16T03:58:12.720Z,6.60
2019-05-16T04:00:52.776Z,6.70
2019-05-16T04:03:23.464Z,6.70
2019-05-16T04:05:53.739Z,6.80
2019-05-16T04:08:25.241Z,6.90
2019-05-16T04:10:56.077Z,6.90
2019-05-16T04:13:26.362Z,7.00
2019-05-16T04:15:56.874Z,7.10
2019-05-16T04:18:27.264Z,7.10
2019-05-16T04:21:00.750Z,7.20
2019-05-16T04:23:31.355Z,7.30
2019-05-16T04:26:01.694Z,7.40
2019-05-16T04:28:32.187Z,7.50
2019-05-16T04:31:02.516Z,7.60
2019-05-16T04:33:32.725Z,7.70
2019-05-16T04:36:03.014Z,7.80
2019-05-16T04:38:40.607Z,7.90
2019-05-16T04:41:05.429Z,8.00
2019-05-16T04:43:35.638Z,8.10
2019-05-16T04:46:05.991Z,8.20
2019-05-16T04:48:36.437Z,8.30
2019-05-16T04:51:06.819Z,8.40
2019-05-16T04:53:37.184Z,8.50
2019-05-16T04:56:10.843Z,8.60
2019-05-16T04:58:40.821Z,8.70
2019-05-16T05:01:11.608Z,8.80
2019-05-16T05:03:59.696Z,8.80
2019-05-16T05:06:14.008Z,8.90
2019-05-16T05:08:53.849Z,9.10
2019-05-16T05:11:16.448Z,9.20
2019-05-16T05:13:46.929Z,9.30
2019-05-16T05:16:20.040Z,9.40
2019-05-16T05:18:51.403Z,9.50
2019-05-16T05:21:21.573Z,9.60
2019-05-16T05:23:52.061Z,9.60
2019-05-16T05:26:22.321Z,9.70
2019-05-16T05:28:52.516Z,9.80
2019-05-16T05:31:24.914Z,9.80
2019-05-16T05:33:54.659Z,10.00
2019-05-16T05:36:25.209Z,10.10
2019-05-16T05:39:07.897Z,10.20
2019-05-16T05:41:30.114Z,10.30
2019-05-16T05:43:59.931Z,10.40
2019-05-16T05:46:31.725Z,10.50
2019-05-16T05:49:02.221Z,10.50
2019-05-16T05:51:32.520Z,10.70
2019-05-16T05:54:02.897Z,10.80
2019-05-16T05:56:33.182Z,10.90
2019-05-16T05:59:04.402Z,11.10
2019-05-16T06:01:34.929Z,11.30
2019-05-16T06:04:05.211Z,11.50
2019-05-16T06:06:35.476Z,11.70
2019-05-16T06:09:06.636Z,11.80
2019-05-16T06:11:37.016Z,12.00
2019-05-16T06:14:09.713Z,12.20
2019-05-16T06:16:40.257Z,12.30
2019-05-16T06:19:11.201Z,12.50
2019-05-16T06:21:45.015Z,12.60
2019-05-16T06:24:16.073Z,12.80
2019-05-16T06:26:45.622Z,12.80
2019-05-16T06:29:15.977Z,13.10
2019-05-16T06:31:46.245Z,13.20
2019-05-16T06:34:16.831Z,13.30
2019-05-16T06:36:50.683Z,13.50
2019-05-16T06:39:20.187Z,13.70
2019-05-16T06:41:51.019Z,13.90
2019-05-16T06:44:21.580Z,14.00
2019-05-16T06:47:08.482Z,14.10
2019-05-16T06:49:24.472Z,14.10
2019-05-16T06:51:54.685Z,14.30
2019-05-16T06:54:25.262Z,14.30
2019-05-16T06:56:55.533Z,14.50
2019-05-16T06:59:25.825Z,14.60
2019-05-16T07:01:56.137Z,14.70
2019-05-16T07:04:26.521Z,14.90
2019-05-16T07:06:59.982Z,15.00
2019-05-16T07:09:30.132Z,15.00
2019-05-16T07:12:00.452Z,15.20
2019-05-16T07:14:31.338Z,15.40
2019-05-16T07:17:01.934Z,15.50
2019-05-16T07:19:35.325Z,15.70
2019-05-16T07:22:04.438Z,15.70
2019-05-16T07:24:34.774Z,15.70
2019-05-16T07:27:05.043Z,16.10
2019-05-16T07:29:35.419Z,16.30
2019-05-16T07:32:05.822Z,16.60
2019-05-16T07:34:36.279Z,16.60
2019-05-16T07:37:06.823Z,16.70
2019-05-16T07:39:39.311Z,16.80
2019-05-16T07:42:11.100Z,16.70
2019-05-16T07:44:41.112Z,16.80
2019-05-16T07:47:11.613Z,16.80
2019-05-16T07:49:41.885Z,16.80
2019-05-16T07:52:12.103Z,16.80
2019-05-16T07:54:42.476Z,16.80
2019-05-16T07:57:19.509Z,16.80
2019-05-16T07:59:45.149Z,17.00
2019-05-16T08:02:15.570Z,17.30
2019-05-16T08:04:46.221Z,17.60
2019-05-16T08:07:16.720Z,17.80
2019-05-16T08:09:47.376Z,17.80
2019-05-16T08:12:23.506Z,18.00
2019-05-16T08:14:50.306Z,18.30
2019-05-16T08:17:21.626Z,18.50
2019-05-16T08:19:52.462Z,18.60
2019-05-16T08:22:23.069Z,18.90
2019-05-16T08:24:53.591Z,19.10
2019-05-16T08:27:24.168Z,19.20
2019-05-16T08:29:54.794Z,19.60
2019-05-16T08:32:25.291Z,19.50
2019-05-16T08:34:55.887Z,19.60
2019-05-16T08:37:37.501Z,19.60
2019-05-16T08:40:00.389Z,19.70
2019-05-16T08:42:32.201Z,19.70
2019-05-16T08:45:02.680Z,19.80
2019-05-16T08:47:33.184Z,19.70
2019-05-16T08:50:13.671Z,19.90
2019-05-16T08:52:43.042Z,20.00
2019-05-16T08:55:12.632Z,20.10
2019-05-16T08:57:43.302Z,19.90
2019-05-16T09:00:15.375Z,20.20
2019-05-16T09:02:46.000Z,20.30
2019-05-16T09:05:16.585Z,20.30
2019-05-16T09:07:47.204Z,20.40
2019-05-16T09:12:49.964Z,20.50
2019-05-16T09:15:21.036Z,20.40
2019-05-16T09:17:51.594Z,20.60
2019-05-16T09:20:22.252Z,20.70
2019-05-16T09:22:52.781Z,20.70
2019-05-16T09:25:23.276Z,20.80
2019-05-16T09:27:53.702Z,20.80
2019-05-16T09:30:27.274Z,20.80
2019-05-16T09:32:58.769Z,20.80
2019-05-16T09:35:28.881Z,20.90
2019-05-16T09:37:59.432Z,21.00
2019-05-16T09:40:29.893Z,21.20
2019-05-16T09:43:00.393Z,21.40
2019-05-16T09:45:31.116Z,21.70
2019-05-16T09:48:01.841Z,21.40
2019-05-16T09:50:32.471Z,21.20
2019-05-16T09:53:02.870Z,21.40
2019-05-16T09:55:33.261Z,21.30
2019-05-16T09:58:07.110Z,21.40
2019-05-16T10:00:37.340Z,21.30
2019-05-16T10:03:08.492Z,21.50
2019-05-16T10:05:39.149Z,21.50
2019-05-16T10:08:09.454Z,21.80
2019-05-16T10:10:39.997Z,21.90
2019-05-16T10:13:10.729Z,21.50
2019-05-16T10:15:41.275Z,21.40
2019-05-16T10:18:12.016Z,21.80
2019-05-16T10:20:42.550Z,21.80
2019-05-16T10:23:14.647Z,22.10
2019-05-16T10:25:47.932Z,22.40
2019-05-16T10:28:20.022Z,22.10
2019-05-16T10:30:50.332Z,21.60
2019-05-16T10:33:20.958Z,21.50
2019-05-16T10:35:51.525Z,21.20
2019-05-16T10:38:21.961Z,21.50
2019-05-16T10:40:52.549Z,21.50
2019-05-16T10:43:23.087Z,21.60
2019-05-16T10:45:53.823Z,21.70
2019-05-16T10:48:26.713Z,22.30
2019-05-16T10:50:57.657Z,22.40
2019-05-16T10:54:01.327Z,22.40
2019-05-16T10:56:00.803Z,22.10
2019-05-16T10:58:37.150Z,22.00
2019-05-16T11:01:24.438Z,21.90
2019-05-16T11:03:36.293Z,21.90
2019-05-16T11:06:13.054Z,22.10
2019-05-16T11:08:39.615Z,22.50
2019-05-16T11:11:10.397Z,22.60
2019-05-16T11:13:40.816Z,22.20
2019-05-16T11:16:11.404Z,22.60
2019-05-16T11:18:42.277Z,22.90
2019-05-16T11:21:12.801Z,22.50
2019-05-16T11:23:43.462Z,22.10
2019-05-16T11:26:13.884Z,22.40
2019-05-16T11:28:47.913Z,22.10
2019-05-16T11:31:17.677Z,22.10
2019-05-16T11:33:48.372Z,22.30
2019-05-16T11:36:19.103Z,22.40
2019-05-16T11:38:49.650Z,22.20
2019-05-16T11:41:20.032Z,22.60
2019-05-16T11:43:50.562Z,23.00
2019-05-16T11:46:20.964Z,22.90
2019-05-16T11:48:51.456Z,23.10
2019-05-16T11:51:21.965Z,22.70
2019-05-16T11:53:52.513Z,22.90
2019-05-16T11:56:22.988Z,23.20
2019-05-16T11:58:53.418Z,23.50
2019-05-16T12:01:23.963Z,23.50
2019-05-16T12:03:54.325Z,23.50
2019-05-16T12:06:26.795Z,23.10
2019-05-16T12:08:56.912Z,23.50
2019-05-16T12:11:27.574Z,23.50
2019-05-16T12:13:57.924Z,23.80
2019-05-16T12:16:28.326Z,23.80
2019-05-16T12:18:58.644Z,23.70
2019-05-16T12:21:29.068Z,23.30
2019-05-16T12:23:59.658Z,23.50
2019-05-16T12:26:30.241Z,23.50
2019-05-16T12:29:00.732Z,23.40
2019-05-16T12:31:32.556Z,23.70
2019-05-16T12:34:03.062Z,23.80
2019-05-16T12:36:33.561Z,23.90
2019-05-16T12:39:07.923Z,23.90
2019-05-16T12:41:40.960Z,24.10
2019-05-16T12:44:10.790Z,24.00
2019-05-16T12:46:41.470Z,23.90
2019-05-16T12:49:11.993Z,23.80
2019-05-16T12:51:42.496Z,23.30
2019-05-16T12:54:13.118Z,22.90
2019-05-16T12:56:43.719Z,22.70
2019-05-16T12:59:20.402Z,22.60
2019-05-16T13:01:48.183Z,22.30
2019-05-16T13:04:19.461Z,22.40
2019-05-16T13:06:49.984Z,22.20
2019-05-16T13:09:20.396Z,22.20
2019-05-16T13:11:50.743Z,22.20
2019-05-16T13:14:21.021Z,22.10
2019-05-16T13:16:51.538Z,21.80
2019-05-16T13:19:21.946Z,21.70
2019-05-16T13:21:52.723Z,21.80
2019-05-16T13:24:23.366Z,22.00
2019-05-16T13:26:53.924Z,22.20
2019-05-16T13:29:27.308Z,22.20
2019-05-16T13:31:57.090Z,21.90
2019-05-16T13:34:28.254Z,21.80
2019-05-16T13:36:58.971Z,21.90
2019-05-16T13:39:29.401Z,21.90
2019-05-16T13:41:59.881Z,21.90
2019-05-16T13:44:30.394Z,21.60
2019-05-16T13:47:00.717Z,21.20
2019-05-16T13:49:31.224Z,21.40
2019-05-16T13:52:01.726Z,21.20
2019-05-16T13:54:32.344Z,21.50
2019-05-16T13:57:02.970Z,21.50
2019-05-16T13:59:33.308Z,21.70
2019-05-16T14:02:03.985Z,21.80
2019-05-16T14:04:37.077Z,21.80
2019-05-16T14:07:07.615Z,21.70
2019-05-16T14:09:38.402Z,21.50
2019-05-16T14:12:08.982Z,21.70
2019-05-16T14:14:42.513Z,21.40
2019-05-16T14:17:14.370Z,21.60
2019-05-16T14:19:43.806Z,21.60
2019-05-16T14:22:17.287Z,21.60
2019-05-16T14:24:48.160Z,21.60
2019-05-16T14:27:18.986Z,21.70
2019-05-16T14:29:49.569Z,21.70
2019-05-16T14:32:20.315Z,21.80
2019-05-16T14:34:51.843Z,21.80
2019-05-16T14:37:22.679Z,21.90
2019-05-16T14:39:53.234Z,21.90
2019-05-16T14:42:23.757Z,21.80
2019-05-16T14:45:06.591Z,21.80
2019-05-16T14:47:27.228Z,21.50
2019-05-16T14:49:57.764Z,21.30
2019-05-16T14:52:28.409Z,20.90
2019-05-16T14:54:58.731Z,20.60
2019-05-16T14:57:29.084Z,20.70
2019-05-16T14:59:59.493Z,20.60
2019-05-16T15:02:29.976Z,20.40
2019-05-16T15:05:00.277Z,20.50
2019-05-16T15:07:30.985Z,20.50
2019-05-16T15:10:01.656Z,20.40
2019-05-16T15:12:32.238Z,20.40
2019-05-16T15:15:19.085Z,20.30
2019-05-16T15:17:36.348Z,20.30
2019-05-16T15:20:09.490Z,20.40
2019-05-16T15:22:40.003Z,20.20
2019-05-16T15:25:10.835Z,20.20
2019-05-16T15:27:41.433Z,20.10
2019-05-16T15:30:13.717Z,20.30
2019-05-16T15:32:44.073Z,20.30
2019-05-16T15:35:17.774Z,20.30
2019-05-16T15:37:48.263Z,20.20
2019-05-16T15:40:19.586Z,19.90
2019-05-16T15:42:50.004Z,19.70
2019-05-16T15:45:35.670Z,19.80
2019-05-16T15:47:59.683Z,19.90
2019-05-16T15:50:28.328Z,20.10
2019-05-16T15:53:10.838Z,20.00
2019-05-16T15:55:42.083Z,19.90
2019-05-16T15:58:12.472Z,19.90
2019-05-16T16:00:48.239Z,19.70
2019-05-16T16:03:18.359Z,19.80
2019-05-16T16:05:49.221Z,19.80
2019-05-16T16:08:19.953Z,19.60
2019-05-16T16:10:50.365Z,19.50
2019-05-16T16:13:20.976Z,19.50
2019-05-16T16:15:54.657Z,19.60
2019-05-16T16:18:23.884Z,19.40
2019-05-16T16:20:56.802Z,19.50
2019-05-16T16:23:27.572Z,19.20
2019-05-16T16:25:59.610Z,19.20
2019-05-16T16:28:30.536Z,19.00
2019-05-16T16:31:01.098Z,18.80
2019-05-16T16:33:31.401Z,18.80
2019-05-16T16:36:02.056Z,18.70
2019-05-16T16:38:32.674Z,18.70
2019-05-16T16:41:03.129Z,18.60
2019-05-16T16:43:33.609Z,18.60
2019-05-16T16:46:09.138Z,18.60
2019-05-16T16:48:36.324Z,18.50
2019-05-16T16:51:07.086Z,18.50
2019-05-16T16:53:38.029Z,18.50
2019-05-16T16:56:08.741Z,18.60
2019-05-16T16:58:39.414Z,18.50
2019-05-16T17:01:09.990Z,18.50
2019-05-16T17:03:40.437Z,18.40
2019-05-16T17:06:10.933Z,18.20
2019-05-16T17:08:41.444Z,18.10
2019-05-16T17:11:11.918Z,18.20
2019-05-16T17:13:42.388Z,18.10
2019-05-16T17:16:25.335Z,18.10
2019-05-16T17:18:44.702Z,18.00
2019-05-16T17:21:17.063Z,17.90
2019-05-16T17:23:47.836Z,17.80
2019-05-16T17:26:18.537Z,17.50
2019-05-16T17:28:48.953Z,17.40
2019-05-16T17:31:19.399Z,17.20
2019-05-16T17:33:49.895Z,17.20
2019-05-16T17:36:20.168Z,17.20
2019-05-16T17:38:50.392Z,17.00
2019-05-16T17:41:20.872Z,17.10
2019-05-16T17:43:51.488Z,17.20
2019-05-16T17:46:34.018Z,17.10
2019-05-16T17:48:54.147Z,17.20
2019-05-16T17:51:26.204Z,17.10
2019-05-16T17:53:57.105Z,17.30
2019-05-16T17:56:27.492Z,17.20
2019-05-16T17:58:57.952Z,17.20
2019-05-16T18:01:28.469Z,17.30
2019-05-16T18:03:58.782Z,17.30
2019-05-16T18:06:29.169Z,17.20
2019-05-16T18:08:59.764Z,17.00
2019-05-16T18:11:30.269Z,16.70
2019-05-16T18:14:00.797Z,16.40
2019-05-16T18:16:31.310Z,16.20
2019-05-16T18:19:01.801Z,15.90
2019-05-16T18:21:32.305Z,15.80
2019-05-16T18:24:02.911Z,15.60
2019-05-16T18:26:33.413Z,15.40
2019-05-16T18:29:04.077Z,15.30
2019-05-16T18:31:34.506Z,15.10
2019-05-16T18:34:07.187Z,15.00
2019-05-16T18:36:37.157Z,14.80
2019-05-16T18:39:08.023Z,14.70
2019-05-16T18:41:38.572Z,14.60
2019-05-16T18:44:09.239Z,14.50
2019-05-16T18:46:39.645Z,14.40
2019-05-16T18:49:10.080Z,14.30
2019-05-16T18:51:40.680Z,14.30
2019-05-16T18:54:11.209Z,14.70
2019-05-16T18:56:41.801Z,14.80
2019-05-16T18:59:12.305Z,14.90
2019-05-16T19:01:42.762Z,14.70
2019-05-16T19:04:13.531Z,14.40
2019-05-16T19:06:44.129Z,14.20
2019-05-16T19:09:16.460Z,14.10
2019-05-16T19:11:46.591Z,14.00
2019-05-16T19:14:17.240Z,13.80
2019-05-16T19:16:49.204Z,13.60
2019-05-16T19:19:19.776Z,13.50
2019-05-16T19:21:50.112Z,13.40
2019-05-16T19:24:20.691Z,13.30
2019-05-16T19:26:51.449Z,13.20
2019-05-16T19:29:21.748Z,13.00
2019-05-16T19:31:52.085Z,12.90
2019-05-16T19:34:22.738Z,12.70
2019-05-16T19:36:53.124Z,12.60
2019-05-16T19:39:26.063Z,12.50
2019-05-16T19:41:57.227Z,12.40
2019-05-16T19:44:27.735Z,12.30
2019-05-16T19:46:58.417Z,12.20
2019-05-16T19:49:29.000Z,12.20
2019-05-16T19:51:59.366Z,12.10
2019-05-16T19:54:29.861Z,12.00
2019-05-16T19:57:00.160Z,12.00
2019-05-16T19:59:30.476Z,11.90
2019-05-16T20:02:01.033Z,11.90
2019-05-16T20:04:31.420Z,11.90
2019-05-16T20:07:01.792Z,11.90
2019-05-16T20:09:32.181Z,11.90
2019-05-16T20:12:02.697Z,11.80
2019-05-16T20:14:33.189Z,11.70
2019-05-16T20:17:03.733Z,11.70
2019-05-16T20:19:36.326Z,11.60
2019-05-16T20:22:07.665Z,11.60
2019-05-16T20:24:38.336Z,11.50
2019-05-16T20:27:08.844Z,11.50
2019-05-16T20:29:39.056Z,11.50
2019-05-16T20:32:11.464Z,11.40
2019-05-16T20:34:41.345Z,11.30
2019-05-16T20:37:11.844Z,11.30
2019-05-16T20:39:42.430Z,11.20
2019-05-16T20:42:12.640Z,11.20
2019-05-16T20:44:42.937Z,11.10
2019-05-16T20:47:13.217Z,11.10
2019-05-16T20:49:43.442Z,11.10
2019-05-16T20:52:13.784Z,11.10
2019-05-16T20:54:44.008Z,11.10
2019-05-16T20:57:14.231Z,11.10
2019-05-16T20:59:46.325Z,11.00
2019-05-16T21:02:16.421Z,11.00
2019-05-16T21:04:46.632Z,11.00
2019-05-16T21:07:17.266Z,10.90
2019-05-16T21:09:47.712Z,10.90
2019-05-16T21:12:18.008Z,10.80
2019-05-16T21:14:48.452Z,10.70
2019-05-16T21:17:18.841Z,10.70
2019-05-16T21:19:49.000Z,10.60
2019-05-16T21:22:19.557Z,10.60
2019-05-16T21:24:49.812Z,10.60
2019-05-16T21:27:20.180Z,10.50
2019-05-16T21:29:50.505Z,10.50
2019-05-16T21:32:20.783Z,10.40
2019-05-16T21:34:51.182Z,10.30
2019-05-16T21:37:21.560Z,10.30
2019-05-16T21:39:51.844Z,10.20
2019-05-16T21:42:26.926Z,10.10
2019-05-16T21:44:57.170Z,10.10
2019-05-16T21:47:27.702Z,10.00
2019-05-16T21:49:58.246Z,10.00
2019-05-16T21:52:28.864Z,10.00
2019-05-16T21:54:59.236Z,9.90
2019-05-16T21:57:29.640Z,9.90
2019-05-16T21:59:59.903Z,9.90
2019-05-16T22:02:30.252Z,9.80
2019-05-16T22:05:00.604Z,9.80
2019-05-16T22:07:33.442Z,9.70
2019-05-16T22:10:03.212Z,9.70
2019-05-16T22:12:33.501Z,9.70
2019-05-16T22:15:06.530Z,9.60
2019-05-16T22:17:36.759Z,9.60
2019-05-16T22:20:07.751Z,9.50
2019-05-16T22:22:38.395Z,9.50
2019-05-16T22:25:08.873Z,9.50
2019-05-16T22:27:39.085Z,9.50
2019-05-16T22:30:11.566Z,9.40
2019-05-16T22:32:42.120Z,9.40
2019-05-16T22:35:12.853Z,9.40
2019-05-16T22:37:51.990Z,9.40
2019-05-16T22:40:17.184Z,9.40
2019-05-16T22:42:47.653Z,9.40
2019-05-16T22:45:19.655Z,9.40
2019-05-16T22:47:49.957Z,9.40
2019-05-16T22:50:20.907Z,9.40
2019-05-16T22:52:51.180Z,9.30
2019-05-16T22:55:21.773Z,9.30
2019-05-16T22:57:51.896Z,9.20
2019-05-16T23:00:26.447Z,9.10
2019-05-16T23:02:56.662Z,9.10
2019-05-16T23:05:27.508Z,9.00
2019-05-16T23:08:05.080Z,8.90
2019-05-16T23:10:30.110Z,8.80
2019-05-16T23:13:00.456Z,8.70
2019-05-16T23:15:30.824Z,8.80
2019-05-16T23:18:01.040Z,8.70
2019-05-16T23:20:31.253Z,8.70
2019-05-16T23:23:01.389Z,8.70
2019-05-16T23:25:31.665Z,8.70
2019-05-16T23:28:01.914Z,8.70
2019-05-16T23:30:32.248Z,8.60
2019-05-16T23:33:02.458Z,8.50
2019-05-16T23:35:32.734Z,8.50
2019-05-16T23:38:14.670Z,8.50
2019-05-16T23:40:36.979Z,8.50
2019-05-16T23:43:07.705Z,8.50
2019-05-16T23:45:38.092Z,8.40
2019-05-16T23:48:10.455Z,8.40
2019-05-16T23:50:40.420Z,8.40
2019-05-16T23:53:10.636Z,8.40
2019-05-16T23:55:40.923Z,8.40
2019-05-16T23:58:11.206Z,8.30
